Time;durP1;ratioP1;P1;durP2;ratioP2;P2;SDS_P1;SDS_P2;PMS_P1;PMS_P2;Temp;Humidity;BMP_temperature;BMP_pressure;BME280_temperature;BME280_humidity;BME280_pressure;Samples;Min_cycle;Max_cycle;Signal;HPM_P1;HPM_P2
2022/10/28 00:00:15;;;;;;;;;;;;;;;13.39;65.41;101046.56;4913099;29;19926;-83
2022/10/28 00:02:40;;;;;;;;;;;;;;;13.38;65.74;101043.94;4913761;29;19915;-83
2022/10/28 00:05:06;;;;;;;;;;;;;;;13.49;65.28;101049.16;4913685;29;19927;-83
2022/10/28 00:07:31;;;;;;;;;;;;;;;13.37;65.89;101044.81;4913151;29;19919;-83
2022/10/28 00:09:56;;;;;;;;;;;;;;;13.48;65.76;101050.91;4913030;29;19919;-84
2022/10/28 00:12:22;;;;;;;;;;;;;;;13.40;65.42;101043.00;4914851;29;19964;-84
2022/10/28 00:14:47;;;;;;;;;;;;;;;13.40;65.59;101044.78;4912647;29;20298;-84
2022/10/28 00:17:12;;;;;;;;;;;;;;;13.50;65.03;101049.16;4915651;29;20416;-84
2022/10/28 00:19:37;;;;;;;;;;;;;;;13.48;65.37;101045.63;4925418;29;20313;-83
2022/10/28 00:22:03;;;;;;;;;;;;;;;13.51;65.28;101055.34;4912761;29;20390;-84
2022/10/28 00:24:28;;;;;;;;;;;;;;;13.66;65.04;101055.25;4912933;29;19935;-83
2022/10/28 00:26:53;;;;;;;;;;;;;;;13.57;65.57;101050.88;4912673;29;19915;-84
2022/10/28 00:29:19;;;;;;;;;;;;;;;13.71;65.32;101044.59;4912778;29;20053;-83
2022/10/28 00:31:45;;;;;;;;;;;;;;;13.61;64.87;101047.31;4912807;29;20358;-84
2022/10/28 00:34:12;;;;;;;;;;;;;;;13.71;65.00;101052.56;4912434;29;20026;-83
2022/10/28 00:36:39;;;;;;;;;;;;;;;13.60;65.19;101048.19;4912157;29;19929;-85
2022/10/28 00:39:09;;;;;;;;;;;;;;;13.86;65.07;101048.94;4916442;29;20639;-84
2022/10/28 00:41:36;;;;;;;;;;;;;;;13.93;65.30;101050.63;4931443;29;19974;-83
2022/10/28 00:44:21;;;;;;;;;;;;;;;13.85;65.05;101050.69;4931224;29;19923;-84
2022/10/28 00:46:48;;;;;;;;;;;;;;;13.81;66.11;101059.59;4930260;29;19962;-84
2022/10/28 00:49:27;;;;;;;;;;;;;;;13.78;65.50;101054.28;4926334;29;19926;-84
2022/10/28 00:51:56;;;;;;;;;;;;;;;13.71;65.56;101053.44;4912645;29;20449;-83
2022/10/28 00:54:22;;;;;;;;;;;;;;;13.76;65.11;101059.63;4930940;29;19918;-84
2022/10/28 00:56:50;;;;;;;;;;;;;;;13.79;65.19;101059.59;4916219;29;19919;-84
2022/10/28 00:59:22;;;;;;;;;;;;;;;13.68;66.72;101050.81;4912858;29;19978;-84
2022/10/28 01:01:47;;;;;;;;;;;;;;;13.68;66.56;101047.28;4912285;29;19918;-84
2022/10/28 01:04:13;;;;;;;;;;;;;;;13.63;65.94;101047.31;4912147;29;19922;-83
2022/10/28 01:06:40;;;;;;;;;;;;;;;13.56;65.61;101045.56;4918605;29;19954;-83
2022/10/28 01:09:05;;;;;;;;;;;;;;;13.57;66.80;101037.63;4914063;29;19923;-85
2022/10/28 01:11:50;;;;;;;;;;;;;;;13.58;67.80;101039.38;4931007;29;20748;-85
2022/10/28 01:14:15;;;;;;;;;;;;;;;13.50;67.85;101041.22;4930404;29;20407;-84
2022/10/28 01:16:43;;;;;;;;;;;;;;;13.51;67.80;101044.72;4930720;29;19919;-84
2022/10/28 01:19:27;;;;;;;;;;;;;;;13.53;66.95;101038.53;4930538;29;19964;-85
2022/10/28 01:21:52;;;;;;;;;;;;;;;13.33;66.78;101040.38;4930506;29;19926;-84
2022/10/28 01:24:36;;;;;;;;;;;;;;;13.51;65.21;101042.94;4930408;29;20381;-85
2022/10/28 01:27:01;;;;;;;;;;;;;;;13.50;64.90;101041.22;4929863;29;19982;-85
2022/10/28 01:29:26;;;;;;;;;;;;;;;13.48;63.16;101047.41;4913635;29;19958;-84
2022/10/28 01:31:54;;;;;;;;;;;;;;;13.42;63.17;101040.34;4930827;29;20436;-83
2022/10/28 01:34:32;;;;;;;;;;;;;;;13.45;62.77;101040.34;4930256;29;19914;-83
2022/10/28 01:36:57;;;;;;;;;;;;;;;13.34;60.93;101043.03;4931011;29;19919;-83
2022/10/28 01:39:31;;;;;;;;;;;;;;;13.35;60.72;101047.47;4930829;29;20464;-83
2022/10/28 01:41:57;;;;;;;;;;;;;;;13.33;61.65;101040.38;4922831;29;19923;-84
2022/10/28 01:44:33;;;;;;;;;;;;;;;13.21;62.68;101052.78;4911671;29;19929;-84
2022/10/28 01:46:58;;;;;;;;;;;;;;;13.18;63.13;101054.59;4897920;29;20437;-83
2022/10/28 01:49:26;;;;;;;;;;;;;;;13.15;63.33;101049.28;4930358;29;19950;-83
2022/10/28 01:51:57;;;;;;;;;;;;;;;13.09;63.98;101055.50;4914653;29;20445;-83
2022/10/28 01:54:26;;;;;;;;;;;;;;;13.15;63.59;101052.81;4911284;29;20450;-82
2022/10/28 01:56:52;;;;;;;;;;;;;;;13.13;63.26;101053.69;4912733;29;20001;-83
2022/10/28 01:59:25;;;;;;;;;;;;;;;12.95;64.16;101052.00;4911675;29;20006;-83
2022/10/28 02:01:51;;;;;;;;;;;;;;;12.83;65.36;101051.16;4913998;29;19919;-83
2022/10/28 02:04:16;;;;;;;;;;;;;;;12.93;64.91;101051.13;4917354;29;19945;-82
2022/10/28 02:06:43;;;;;;;;;;;;;;;13.01;64.79;101054.66;4917876;29;19918;-83
2022/10/28 02:09:11;;;;;;;;;;;;;;;12.80;65.43;101059.09;4917952;29;19923;-83
2022/10/28 02:11:39;;;;;;;;;;;;;;;12.61;65.91;101063.56;4917897;29;19923;-84
2022/10/28 02:14:10;;;;;;;;;;;;;;;12.56;65.98;101068.00;4936324;29;20053;-83
2022/10/28 02:16:54;;;;;;;;;;;;;;;12.23;66.36;101074.16;4935488;29;20412;-84
2022/10/28 02:19:32;;;;;;;;;;;;;;;12.19;66.26;101070.66;4930470;29;19954;-83
2022/10/28 02:21:57;;;;;;;;;;;;;;;12.10;65.89;101071.50;4910499;29;19946;-84
2022/10/28 02:24:28;;;;;;;;;;;;;;;12.26;65.13;101069.75;4930793;29;19915;-84
2022/10/28 02:27:04;;;;;;;;;;;;;;;12.44;64.24;101070.66;4935621;29;19919;-84
2022/10/28 02:29:37;;;;;;;;;;;;;;;12.08;63.48;101075.03;4935998;29;19918;-83
2022/10/28 02:32:07;;;;;;;;;;;;;;;11.43;65.61;101072.22;4934918;29;20346;-84
2022/10/28 02:34:34;;;;;;;;;;;;;;;11.56;65.86;101070.50;4936076;29;19915;-84
2022/10/28 02:37:02;;;;;;;;;;;;;;;11.70;65.03;101079.34;4915154;29;20265;-84
2022/10/28 02:39:30;;;;;;;;;;;;;;;11.82;64.92;101070.56;4917504;29;20001;-83
2022/10/28 02:42:02;;;;;;;;;;;;;;;11.95;64.39;101076.78;4936097;29;19988;-83
2022/10/28 02:44:30;;;;;;;;;;;;;;;12.04;63.77;101078.56;4935934;29;20024;-84
2022/10/28 02:46:58;;;;;;;;;;;;;;;11.91;63.62;101082.91;4930283;29;19940;-83
2022/10/28 02:49:24;;;;;;;;;;;;;;;11.79;63.69;101049.44;4930914;29;19926;-85
2022/10/28 02:51:54;;;;;;;;;;;;;;;11.97;63.52;101081.22;4917283;29;19915;-83
2022/10/28 02:54:23;;;;;;;;;;;;;;;11.99;63.33;101079.44;4917363;29;19922;-83
2022/10/28 02:56:58;;;;;;;;;;;;;;;11.91;63.47;101086.47;4917165;29;20018;-83
2022/10/28 02:59:24;;;;;;;;;;;;;;;11.81;63.70;101087.31;4916812;29;20022;-83
2022/10/28 03:01:50;;;;;;;;;;;;;;;11.85;63.54;101085.53;4913931;29;20395;-83
2022/10/28 03:04:15;;;;;;;;;;;;;;;11.72;63.99;101089.94;4936325;29;20014;-83
2022/10/28 03:06:40;;;;;;;;;;;;;;;11.69;64.01;101088.16;4936190;29;19918;-85
2022/10/28 03:09:05;;;;;;;;;;;;;;;11.77;63.53;101093.47;4935837;29;19918;-84
2022/10/28 03:11:31;;;;;;;;;;;;;;;11.76;63.59;101083.78;4936628;29;20365;-82
2022/10/28 03:13:56;;;;;;;;;;;;;;;11.69;63.56;101100.50;4932793;29;19919;-83
2022/10/28 03:16:21;;;;;;;;;;;;;;;11.62;63.63;101096.97;4919765;29;19919;-84
2022/10/28 03:18:47;;;;;;;;;;;;;;;11.48;64.35;101102.19;4922051;29;19923;-82
2022/10/28 03:21:12;;;;;;;;;;;;;;;11.64;64.03;101098.72;4918859;29;20051;-85
2022/10/28 03:23:37;;;;;;;;;;;;;;;11.66;63.87;101104.00;4925503;29;19927;-84
2022/10/28 03:26:03;;;;;;;;;;;;;;;11.71;63.89;101096.09;4932397;29;19923;-85
2022/10/28 03:28:28;;;;;;;;;;;;;;;11.41;64.82;101103.91;4933056;29;19919;-84
2022/10/28 03:30:53;;;;;;;;;;;;;;;11.38;65.34;101103.03;4933074;29;20393;-82
2022/10/28 03:33:18;;;;;;;;;;;;;;;11.58;64.85;101103.09;4932765;29;19974;-83
2022/10/28 03:35:44;;;;;;;;;;;;;;;11.60;64.53;101104.88;4929657;29;19923;-86
2022/10/28 03:38:09;;;;;;;;;;;;;;;11.55;65.02;101109.25;4922422;29;19923;-83
2022/10/28 03:40:34;;;;;;;;;;;;;;;11.61;64.40;101111.03;4931401;29;19930;-84
2022/10/28 03:43:00;;;;;;;;;;;;;;;11.75;64.35;101113.72;4927734;29;19922;-84
2022/10/28 03:45:25;;;;;;;;;;;;;;;11.77;64.25;101109.31;4929207;29;20394;-85
2022/10/28 03:47:50;;;;;;;;;;;;;;;11.67;64.13;101115.47;4927862;29;19926;-85
2022/10/28 03:50:16;;;;;;;;;;;;;;;11.61;63.39;101111.91;4929767;29;19973;-84
2022/10/28 03:52:42;;;;;;;;;;;;;;;11.61;62.83;101121.63;4915917;29;19922;-88
2022/10/28 03:55:08;;;;;;;;;;;;;;;11.56;63.14;101115.44;4926054;29;19925;-84
2022/10/28 03:57:33;;;;;;;;;;;;;;;11.45;63.91;101118.03;4915398;29;19919;-87
2022/10/28 03:59:58;;;;;;;;;;;;;;;11.55;63.92;101121.59;4932185;29;19981;-87
2022/10/28 04:02:25;;;;;;;;;;;;;;;11.42;63.56;101120.66;4932286;29;19922;-85
2022/10/28 04:04:50;;;;;;;;;;;;;;;11.23;64.13;101117.03;4931912;29;19919;-83
2022/10/28 04:07:15;;;;;;;;;;;;;;;11.16;64.89;101118.78;4931921;29;20425;-83
2022/10/28 04:09:41;;;;;;;;;;;;;;;11.20;63.62;101119.66;4931888;29;19918;-84
2022/10/28 04:12:06;;;;;;;;;;;;;;;11.18;64.21;101118.78;4932173;29;19914;-85
2022/10/28 04:14:31;;;;;;;;;;;;;;;11.28;64.06;101118.84;4916782;29;19923;-85
2022/10/28 04:16:57;;;;;;;;;;;;;;;11.25;63.97;101115.31;4922864;29;19923;-85
2022/10/28 04:19:22;;;;;;;;;;;;;;;11.22;63.96;101121.44;4912700;29;19926;-86
2022/10/28 04:21:48;;;;;;;;;;;;;;;11.25;63.80;101121.47;4927378;29;19922;-86
2022/10/28 04:24:13;;;;;;;;;;;;;;;11.11;64.16;101125.81;4931608;29;20294;-86
2022/10/28 04:26:38;;;;;;;;;;;;;;;11.18;64.48;101119.66;4931236;29;20009;-86
2022/10/28 04:29:03;;;;;;;;;;;;;;;11.33;63.95;101107.44;4931203;29;19915;-86
2022/10/28 04:31:29;;;;;;;;;;;;;;;11.29;63.90;101115.34;4921304;29;20746;-87
2022/10/28 04:33:54;;;;;;;;;;;;;;;11.24;64.04;101119.69;4928602;29;19922;-86
2022/10/28 04:36:19;;;;;;;;;;;;;;;11.13;64.20;101124.03;4927564;29;19939;-85
2022/10/28 04:38:45;;;;;;;;;;;;;;;11.13;63.57;101121.41;4931454;29;19919;-86
2022/10/28 04:41:14;;;;;;;;;;;;;;;11.12;63.96;101119.63;4932065;29;19972;-88
2022/10/28 04:43:39;;;;;;;;;;;;;;;11.17;63.49;101119.66;4943985;29;19919;-88
2022/10/28 04:46:05;;;;;;;;;;;;;;;11.03;63.85;101123.13;4931424;29;19929;-86
2022/10/28 04:48:31;;;;;;;;;;;;;;;11.08;63.44;101116.09;4931627;29;20290;-88
2022/10/28 04:50:56;;;;;;;;;;;;;;;10.96;63.90;101117.78;4931552;29;20093;-87
2022/10/28 04:53:21;;;;;;;;;;;;;;;10.63;64.93;101119.31;4931403;29;20381;-87
2022/10/28 04:55:46;;;;;;;;;;;;;;;10.47;65.44;101116.59;4930972;29;19919;-88
2022/10/28 04:58:12;;;;;;;;;;;;;;;10.59;65.07;101125.44;4928655;29;20005;-86
2022/10/28 05:00:37;;;;;;;;;;;;;;;10.48;64.37;101122.72;4930530;29;19925;-85
2022/10/28 05:03:03;;;;;;;;;;;;;;;10.42;64.69;101122.69;4926474;29;19922;-85
2022/10/28 05:05:28;;;;;;;;;;;;;;;10.48;64.02;101128.88;4930148;29;19922;-90
2022/10/28 05:07:53;;;;;;;;;;;;;;;10.44;63.52;101126.19;4931984;29;19919;-92
2022/10/28 05:10:22;;;;;;;;;;;;;;;10.50;63.75;101128.91;4922303;29;19927;-94
2022/10/28 05:12:47;;;;;;;;;;;;;;;10.48;63.88;101126.25;4908271;29;20546;-92
2022/10/28 05:15:13;;;;;;;;;;;;;;;10.26;65.48;101130.44;4913304;29;19971;-89
2022/10/28 05:17:39;;;;;;;;;;;;;;;10.29;65.26;101135.72;4920687;29;19919;-88
2022/10/28 05:20:05;;;;;;;;;;;;;;;10.57;66.27;101142.16;4928428;29;19923;-89
2022/10/28 05:22:30;;;;;;;;;;;;;;;10.74;67.30;101139.63;4927203;29;19915;-88
2022/10/28 05:24:56;;;;;;;;;;;;;;;11.06;66.53;101141.63;4918637;29;19931;-89
2022/10/28 05:27:22;;;;;;;;;;;;;;;11.20;66.00;101152.28;4912128;29;20468;-88
2022/10/28 05:29:47;;;;;;;;;;;;;;;11.48;65.31;101136.56;4910675;29;19923;-89
2022/10/28 05:32:12;;;;;;;;;;;;;;;11.67;64.86;101147.19;4915362;29;20374;-89
2022/10/28 05:34:38;;;;;;;;;;;;;;;11.86;64.47;101159.56;4929279;29;19923;-88
2022/10/28 05:37:03;;;;;;;;;;;;;;;11.99;64.23;101157.91;4928147;29;19919;-88
2022/10/28 05:39:28;;;;;;;;;;;;;;;12.03;63.48;101151.72;4928910;29;19921;-88
2022/10/28 05:41:53;;;;;;;;;;;;;;;12.10;63.83;101164.09;4928799;29;19922;-89
2022/10/28 05:44:19;;;;;;;;;;;;;;;12.19;63.09;101165.88;4929552;29;19926;-88
2022/10/28 05:46:44;;;;;;;;;;;;;;;12.27;62.62;101165.91;4929250;29;19938;-88
2022/10/28 05:49:09;;;;;;;;;;;;;;;12.35;62.68;101165.00;4912416;29;20464;-88
2022/10/28 05:51:35;;;;;;;;;;;;;;;12.42;62.32;101171.22;4929130;29;20002;-89
2022/10/28 05:54:00;;;;;;;;;;;;;;;12.41;62.39;101165.91;4928579;29;19950;-86
2022/10/28 05:56:25;;;;;;;;;;;;;;;12.61;62.23;101165.94;4912413;29;19923;-86
2022/10/28 05:58:51;;;;;;;;;;;;;;;12.80;61.94;101164.13;4910889;29;19925;-86
2022/10/28 06:01:16;;;;;;;;;;;;;;;12.67;61.38;101166.78;4912348;29;20412;-87
2022/10/28 06:03:41;;;;;;;;;;;;;;;12.69;61.36;101164.16;4910898;29;19926;-87
2022/10/28 06:06:07;;;;;;;;;;;;;;;12.84;61.05;101168.56;4920293;29;19926;-87
2022/10/28 06:08:32;;;;;;;;;;;;;;;12.74;61.38;101177.38;4914950;29;20504;-87
2022/10/28 06:10:57;;;;;;;;;;;;;;;13.02;61.15;101172.94;4925211;29;20321;-87
2022/10/28 06:13:23;;;;;;;;;;;;;;;12.94;60.86;101169.44;4930120;29;19919;-88
2022/10/28 06:15:52;;;;;;;;;;;;;;;13.17;60.93;101172.91;4930228;29;19918;-88
2022/10/28 06:18:17;;;;;;;;;;;;;;;13.04;60.27;101171.19;4930097;29;19914;-88
2022/10/28 06:20:42;;;;;;;;;;;;;;;12.76;61.33;101176.50;4930583;29;19922;-89
2022/10/28 06:23:08;;;;;;;;;;;;;;;13.23;60.77;101178.19;4930306;29;20057;-88
2022/10/28 06:25:33;;;;;;;;;;;;;;;13.36;59.47;101187.06;4923714;29;20002;-88
2022/10/28 06:28:01;;;;;;;;;;;;;;;13.37;61.32;101177.31;4911230;29;20011;-89
2022/10/28 06:30:27;;;;;;;;;;;;;;;13.78;59.67;101178.94;4910656;29;19923;-89
2022/10/28 06:32:55;;;;;;;;;;;;;;;13.61;58.85;101177.22;4894047;29;20362;-89
2022/10/28 06:35:20;;;;;;;;;;;;;;;13.53;58.77;101176.41;4910872;29;19919;-89
2022/10/28 06:37:46;;;;;;;;;;;;;;;13.48;59.25;101174.63;4893905;29;19930;-89
2022/10/28 06:40:11;;;;;;;;;;;;;;;13.67;59.23;101178.09;4910676;29;20010;-89
2022/10/28 06:42:36;;;;;;;;;;;;;;;14.04;59.06;101177.91;4894559;29;20321;-90
2022/10/28 06:45:02;;;;;;;;;;;;;;;14.39;56.68;101172.38;4910633;29;19915;-89
2022/10/28 06:47:27;;;;;;;;;;;;;;;14.32;56.54;101179.50;4910719;29;19969;-89
2022/10/28 06:49:52;;;;;;;;;;;;;;;14.37;56.90;101168.88;4896951;29;19926;-89
2022/10/28 06:52:18;;;;;;;;;;;;;;;14.65;55.73;101174.00;4914179;29;20708;-89
2022/10/28 06:54:43;;;;;;;;;;;;;;;14.74;56.21;101176.56;4914441;29;19976;-89
2022/10/28 06:57:10;;;;;;;;;;;;;;;14.74;54.96;101181.00;4914587;29;19919;-89
2022/10/28 06:59:36;;;;;;;;;;;;;;;14.70;55.47;101180.13;4897230;29;19970;-90
2022/10/28 07:02:02;;;;;;;;;;;;;;;14.58;56.34;101175.78;4896892;29;19919;-89
2022/10/28 07:04:27;;;;;;;;;;;;;;;15.05;55.03;101173.63;4913896;29;20299;-90
2022/10/28 07:06:56;;;;;;;;;;;;;;;14.93;54.06;101176.41;4914038;29;19919;-89
2022/10/28 07:09:21;;;;;;;;;;;;;;;15.09;53.94;101179.78;4914143;29;19915;-89
2022/10/28 07:11:47;;;;;;;;;;;;;;;15.26;53.49;101171.63;4914070;29;19923;-90
2022/10/28 07:14:13;;;;;;;;;;;;;;;15.50;54.22;101168.69;4897048;29;20735;-89
2022/10/28 07:16:38;;;;;;;;;;;;;;;15.66;53.20;101164.09;4914312;29;19919;-88
2022/10/28 07:19:03;;;;;;;;;;;;;;;16.01;52.08;101169.88;4915380;29;19919;-89
2022/10/28 07:21:29;;;;;;;;;;;;;;;16.01;52.46;101170.72;4897419;29;19922;-88
2022/10/28 07:23:54;;;;;;;;;;;;;;;16.33;51.49;101171.16;4913751;29;20365;-89
2022/10/28 07:26:20;;;;;;;;;;;;;;;16.53;50.36;101177.06;4914280;29;20400;-88
2022/10/28 07:28:45;;;;;;;;;;;;;;;16.73;49.88;101175.84;4913675;29;20420;-89
2022/10/28 07:31:11;;;;;;;;;;;;;;;16.64;49.93;101167.09;4914154;29;20374;-89
2022/10/28 07:33:36;;;;;;;;;;;;;;;16.78;49.34;101172.19;4914199;29;20398;-88
2022/10/28 07:36:02;;;;;;;;;;;;;;;16.74;49.68;101158.97;4914458;29;20393;-89
2022/10/28 07:38:29;;;;;;;;;;;;;;;16.92;48.89;101166.66;4917212;29;19937;-88
2022/10/28 07:40:55;;;;;;;;;;;;;;;17.07;50.15;101170.84;4925652;29;19921;-88
2022/10/28 07:43:20;;;;;;;;;;;;;;;17.33;48.41;101165.00;4921535;29;19978;-87
2022/10/28 07:45:46;;;;;;;;;;;;;;;17.44;48.26;101169.25;4914880;29;20453;-86
2022/10/28 07:48:11;;;;;;;;;;;;;;;17.59;47.55;101165.38;4922311;29;19922;-85
2022/10/28 07:50:38;;;;;;;;;;;;;;;17.74;47.16;101167.75;4938633;29;19938;-89
2022/10/28 07:53:03;;;;;;;;;;;;;;;17.64;47.15;101169.72;4939623;29;19934;-90
2022/10/28 07:55:29;;;;;;;;;;;;;;;17.61;48.19;101159.13;4932755;29;20025;-89
2022/10/28 07:57:54;;;;;;;;;;;;;;;18.08;48.54;101157.22;4913662;29;19958;-89
2022/10/28 08:00:19;;;;;;;;;;;;;;;18.49;46.66;101156.28;4912186;29;19930;-89
2022/10/28 08:02:45;;;;;;;;;;;;;;;17.99;46.12;101153.88;4913505;29;19973;-89
2022/10/28 08:05:10;;;;;;;;;;;;;;;17.70;46.98;101161.59;4912732;29;19919;-89
2022/10/28 08:07:35;;;;;;;;;;;;;;;18.17;46.50;101158.81;4913022;29;19919;-89
2022/10/28 08:10:00;;;;;;;;;;;;;;;18.11;46.39;101155.41;4913085;29;19970;-89
2022/10/28 08:12:27;;;;;;;;;;;;;;;18.01;46.61;101150.28;4912913;29;19923;-88
2022/10/28 08:14:53;;;;;;;;;;;;;;;18.22;46.58;101156.91;4912675;29;19926;-89
2022/10/28 08:17:18;;;;;;;;;;;;;;;18.14;46.41;101147.31;4912756;29;19915;-89
2022/10/28 08:19:43;;;;;;;;;;;;;;;18.34;46.59;101155.72;4912753;29;19917;-88
2022/10/28 08:22:09;;;;;;;;;;;;;;;18.65;46.00;101159.47;4912384;29;20528;-89
2022/10/28 08:24:35;;;;;;;;;;;;;;;18.64;46.39;101152.34;4895105;29;19942;-89
2022/10/28 08:27:00;;;;;;;;;;;;;;;18.57;45.17;101152.50;4912517;29;19974;-88
2022/10/28 08:29:26;;;;;;;;;;;;;;;18.37;46.16;101153.00;4912842;29;19919;-89
2022/10/28 08:31:51;;;;;;;;;;;;;;;18.56;46.25;101148.06;4912538;29;19957;-89
2022/10/28 08:34:16;;;;;;;;;;;;;;;18.88;46.68;101143.72;4912219;29;19951;-89
2022/10/28 08:36:42;;;;;;;;;;;;;;;19.08;46.02;101139.66;4912513;29;19968;-89
2022/10/28 08:39:07;;;;;;;;;;;;;;;19.00;44.56;101133.59;4912278;29;19919;-90
2022/10/28 08:42:06;;;;;;;;;;;;;;;18.85;46.15;101129.56;4912688;29;19919;-89
2022/10/28 08:44:48;;;;;;;;;;;;;;;18.89;44.58;101129.44;4880073;29;20389;-89
2022/10/28 08:47:29;;;;;;;;;;;;;;;19.17;45.66;101122.44;4912026;29;19919;-89
2022/10/28 08:49:56;;;;;;;;;;;;;;;19.38;44.65;101124.50;4912190;29;20021;-88
2022/10/28 08:52:30;;;;;;;;;;;;;;;19.36;42.34;101118.34;4911996;29;20675;-89
2022/10/28 08:55:15;;;;;;;;;;;;;;;19.19;44.23;101120.63;4894545;29;19918;-88
2022/10/28 08:57:50;;;;;;;;;;;;;;;19.43;43.23;101124.38;4911575;29;19919;-89
2022/10/28 09:00:24;;;;;;;;;;;;;;;18.98;43.41;101122.97;4911771;29;19975;-89
2022/10/28 09:02:52;;;;;;;;;;;;;;;18.84;44.54;101117.94;4911886;29;20016;-89
2022/10/28 09:05:25;;;;;;;;;;;;;;;19.06;43.24;101107.59;4894981;29;19915;-89
2022/10/28 09:07:50;;;;;;;;;;;;;;;19.14;42.71;101112.72;4894700;29;19915;-88
2022/10/28 09:10:16;;;;;;;;;;;;;;;19.18;42.55;101108.16;4911820;29;19922;-88
2022/10/28 09:12:58;;;;;;;;;;;;;;;19.11;42.99;101108.34;4895031;29;20303;-88
2022/10/28 09:15:24;;;;;;;;;;;;;;;19.07;42.91;101103.97;4894145;29;19915;-89
2022/10/28 09:17:54;;;;;;;;;;;;;;;19.02;42.75;101113.06;4911269;29;20408;-89
2022/10/28 09:20:24;;;;;;;;;;;;;;;19.36;42.23;101096.94;4909455;29;20466;-89
2022/10/28 09:22:54;;;;;;;;;;;;;;;19.63;41.55;101089.00;4930347;29;19911;-89
2022/10/28 09:25:28;;;;;;;;;;;;;;;19.25;42.80;101091.91;4930595;29;19915;-87
2022/10/28 09:27:57;;;;;;;;;;;;;;;19.33;42.84;101091.69;4931960;29;19966;-87
2022/10/28 09:30:44;;;;;;;;;;;;;;;19.66;41.28;101092.47;4930627;29;19997;-88
2022/10/28 09:33:26;;;;;;;;;;;;;;;19.81;41.45;101087.59;4929475;29;19919;-86
2022/10/28 09:35:53;;;;;;;;;;;;;;;19.76;41.51;101082.34;4929899;29;19922;-87
2022/10/28 09:38:26;;;;;;;;;;;;;;;19.88;41.48;101074.88;4929109;29;19922;-88
2022/10/28 09:40:55;;;;;;;;;;;;;;;19.85;41.47;101071.38;4929975;29;19952;-87
2022/10/28 09:43:25;;;;;;;;;;;;;;;19.66;41.28;101072.84;4929322;29;19962;-89
2022/10/28 09:45:54;;;;;;;;;;;;;;;19.46;41.86;101069.00;4927378;29;19977;-87
2022/10/28 09:48:24;;;;;;;;;;;;;;;19.69;41.55;101067.41;4929360;29;19915;-87
2022/10/28 09:50:51;;;;;;;;;;;;;;;19.89;41.10;101061.44;4928243;29;19919;-86
2022/10/28 09:53:28;;;;;;;;;;;;;;;20.17;40.95;101060.53;4929251;29;19919;-89
2022/10/28 09:55:54;;;;;;;;;;;;;;;20.31;40.48;101049.34;4929182;29;19921;-86
2022/10/28 09:58:20;;;;;;;;;;;;;;;20.56;40.23;101052.09;4929245;29;19919;-85
2022/10/28 10:00:45;;;;;;;;;;;;;;;20.58;40.46;101048.41;4929814;29;19919;-86
2022/10/28 10:03:10;;;;;;;;;;;;;;;20.49;39.77;101042.50;4930313;29;20017;-88
2022/10/28 10:05:49;;;;;;;;;;;;;;;20.65;40.15;101048.22;4930180;29;19919;-86
2022/10/28 10:08:16;;;;;;;;;;;;;;;20.77;39.78;101039.75;4929948;29;19953;-88
2022/10/28 10:11:04;;;;;;;;;;;;;;;20.60;40.46;101034.09;4929613;29;19914;-86
2022/10/28 10:13:37;;;;;;;;;;;;;;;20.86;40.62;101033.19;4911317;29;20329;-87
2022/10/28 10:16:11;;;;;;;;;;;;;;;20.62;40.44;101032.22;4929448;29;19958;-87
2022/10/28 10:18:41;;;;;;;;;;;;;;;20.67;40.65;101028.47;4929343;29;19918;-86
2022/10/28 10:21:06;;;;;;;;;;;;;;;20.87;40.58;101021.53;4929649;29;19953;-86
2022/10/28 10:23:33;;;;;;;;;;;;;;;20.89;40.25;101019.66;4930817;29;20345;-87
2022/10/28 10:26:01;;;;;;;;;;;;;;;21.00;40.58;101012.06;4933692;29;19925;-86
2022/10/28 10:28:27;;;;;;;;;;;;;;;20.86;39.72;101012.59;4933276;29;19914;-88
2022/10/28 10:30:57;;;;;;;;;;;;;;;21.05;39.77;101009.22;4933626;29;19926;-87
2022/10/28 10:33:25;;;;;;;;;;;;;;;21.25;39.27;101009.31;4933932;29;19923;-88
2022/10/28 10:36:13;;;;;;;;;;;;;;;21.35;38.49;101008.97;4933593;29;19918;-86
2022/10/28 10:38:46;;;;;;;;;;;;;;;21.41;38.09;101006.03;4925891;29;19918;-85
2022/10/28 10:41:13;;;;;;;;;;;;;;;21.11;39.08;100999.13;4933538;29;19998;-90
2022/10/28 10:43:39;;;;;;;;;;;;;;;21.12;38.40;100989.28;4916047;29;19918;-86
2022/10/28 10:46:11;;;;;;;;;;;;;;;21.31;38.34;100996.63;4933457;29;19927;-85
2022/10/28 10:48:37;;;;;;;;;;;;;;;21.04;37.55;100991.41;4934183;29;20061;-84
2022/10/28 10:51:04;;;;;;;;;;;;;;;21.61;37.06;100992.75;4932920;29;19927;-84
2022/10/28 10:53:31;;;;;;;;;;;;;;;21.66;36.00;100994.34;4933147;29;19919;-84
2022/10/28 10:56:00;;;;;;;;;;;;;;;21.82;35.67;100985.59;4933271;29;19918;-84
2022/10/28 10:58:27;;;;;;;;;;;;;;;22.04;35.50;100978.47;4933109;29;19925;-83
2022/10/28 11:00:54;;;;;;;;;;;;;;;21.93;35.46;100977.09;4933131;29;20305;-83
2022/10/28 11:03:23;;;;;;;;;;;;;;;21.75;35.48;100977.88;4933274;29;19918;-84
2022/10/28 11:05:50;;;;;;;;;;;;;;;21.40;35.18;100975.66;4933492;29;19919;-86
2022/10/28 11:08:24;;;;;;;;;;;;;;;21.46;35.62;100972.72;4932990;29;20437;-86
2022/10/28 11:11:02;;;;;;;;;;;;;;;21.59;35.17;100977.63;4933157;29;19922;-83
2022/10/28 11:13:28;;;;;;;;;;;;;;;21.71;35.36;100976.28;4932554;29;20700;-85
2022/10/28 11:16:00;;;;;;;;;;;;;;;21.52;35.04;100971.66;4932510;29;19974;-85
2022/10/28 11:18:28;;;;;;;;;;;;;;;21.53;35.52;100970.69;4933020;29;20408;-85
2022/10/28 11:20:53;;;;;;;;;;;;;;;21.80;35.14;100966.00;4932798;29;19980;-86
2022/10/28 11:23:24;;;;;;;;;;;;;;;21.86;35.19;100964.88;4933147;29;20435;-84
2022/10/28 11:25:52;;;;;;;;;;;;;;;21.86;35.63;100964.88;4932591;29;20017;-86
2022/10/28 11:28:20;;;;;;;;;;;;;;;22.10;34.78;100957.59;4932581;29;20013;-86
2022/10/28 11:30:45;;;;;;;;;;;;;;;22.07;34.77;100951.47;4932889;29;19962;-86
2022/10/28 11:33:16;;;;;;;;;;;;;;;21.94;34.11;100953.81;4932467;29;20448;-88
2022/10/28 11:35:52;;;;;;;;;;;;;;;21.93;34.31;100946.69;4931123;29;20309;-86
2022/10/28 11:38:25;;;;;;;;;;;;;;;22.17;33.75;100944.78;4932122;29;19915;-85
2022/10/28 11:40:57;;;;;;;;;;;;;;;21.85;33.35;100936.28;4932230;29;19915;-86
2022/10/28 11:43:25;;;;;;;;;;;;;;;21.77;33.21;100944.66;4932337;29;20745;-85
2022/10/28 11:46:01;;;;;;;;;;;;;;;21.79;33.46;100934.72;4931649;29;19930;-87
2022/10/28 11:48:36;;;;;;;;;;;;;;;21.75;33.10;100930.44;4932221;29;20021;-85
2022/10/28 11:51:12;;;;;;;;;;;;;;;21.83;32.00;100930.09;4932412;29;20021;-85
2022/10/28 11:53:44;;;;;;;;;;;;;;;21.78;33.08;100929.41;4914451;29;20309;-85
2022/10/28 11:56:12;;;;;;;;;;;;;;;21.66;32.99;100920.06;4931873;29;20378;-86
2022/10/28 11:59:04;;;;;;;;;;;;;;;21.90;32.86;100922.66;4931793;29;19929;-85
2022/10/28 12:01:48;;;;;;;;;;;;;;;22.10;32.98;100913.72;4909281;29;19982;-85
2022/10/28 12:04:13;;;;;;;;;;;;;;;22.33;32.31;100912.75;4932050;29;19915;-85
2022/10/28 12:06:57;;;;;;;;;;;;;;;22.56;32.01;100908.16;4931627;29;19925;-85
2022/10/28 12:09:37;;;;;;;;;;;;;;;22.38;32.47;100909.84;4932022;29;19919;-86
2022/10/28 12:12:08;;;;;;;;;;;;;;;22.29;33.26;100898.56;4932051;29;19919;-86
2022/10/28 12:15:00;;;;;;;;;;;;;;;22.16;32.86;100892.81;4931322;29;20480;-86
2022/10/28 12:17:37;;;;;;;;;;;;;;;22.20;32.87;100890.91;4909049;29;19925;-86
2022/10/28 12:20:22;;;;;;;;;;;;;;;22.41;32.72;100886.38;4931933;29;19926;-86
2022/10/28 12:22:50;;;;;;;;;;;;;;;22.38;32.42;100886.53;4914577;29;19957;-85
2022/10/28 12:25:22;;;;;;;;;;;;;;;22.18;33.03;100879.31;4914807;29;19924;-86
2022/10/28 12:27:50;;;;;;;;;;;;;;;22.22;32.68;100880.09;4931603;29;20496;-85
2022/10/28 12:30:42;;;;;;;;;;;;;;;21.97;33.06;100879.34;4931518;29;19919;-85
2022/10/28 12:33:16;;;;;;;;;;;;;;;22.11;33.07;100877.88;4928231;29;19919;-84
2022/10/28 12:35:51;;;;;;;;;;;;;;;22.33;32.85;100877.81;4931764;29;19925;-86
2022/10/28 12:38:22;;;;;;;;;;;;;;;22.08;32.69;100875.31;4931018;29;19919;-86
2022/10/28 12:40:50;;;;;;;;;;;;;;;21.86;32.90;100872.69;4931912;29;20013;-85